sensor_id;sensor_type;location;lat;lon;timestamp;P1;durP1;ratioP1;P2;durP2;ratioP2
14681;SDS011;7429;52.498;13.480;2023-07-09T00:02:56;5.05;;;4.53;;
14681;SDS011;7429;52.498;13.480;2023-07-09T00:06:00;4.72;;;4.22;;
14681;SDS011;7429;52.498;13.480;2023-07-09T00:09:09;8.05;;;4.28;;
14681;SDS011;7429;52.498;13.480;2023-07-09T00:12:20;5.18;;;4.68;;
14681;SDS011;7429;52.498;13.480;2023-07-09T00:15:24;5.93;;;4.45;;
14681;SDS011;7429;52.498;13.480;2023-07-09T00:18:30;4.75;;;4.30;;
14681;SDS011;7429;52.498;13.480;2023-07-09T00:21:33;8.48;;;4.15;;
14681;SDS011;7429;52.498;13.480;2023-07-09T00:24:37;7.00;;;4.55;;
14681;SDS011;7429;52.498;13.480;2023-07-09T00:27:42;7.82;;;4.65;;
14681;SDS011;7429;52.498;13.480;2023-07-09T00:30:50;6.35;;;4.60;;
14681;SDS011;7429;52.498;13.480;2023-07-09T00:33:54;5.47;;;4.00;;
14681;SDS011;7429;52.498;13.480;2023-07-09T00:36:57;7.50;;;4.32;;
14681;SDS011;7429;52.498;13.480;2023-07-09T00:40:03;10.15;;;4.63;;
14681;SDS011;7429;52.498;13.480;2023-07-09T00:43:14;6.00;;;3.65;;
14681;SDS011;7429;52.498;13.480;2023-07-09T00:50:26;7.93;;;4.93;;
14681;SDS011;7429;52.498;13.480;2023-07-09T00:53:44;4.60;;;4.20;;
14681;SDS011;7429;52.498;13.480;2023-07-09T00:56:53;5.22;;;4.65;;
14681;SDS011;7429;52.498;13.480;2023-07-09T01:00:06;5.55;;;5.00;;
14681;SDS011;7429;52.498;13.480;2023-07-09T01:03:17;5.45;;;4.95;;
14681;SDS011;7429;52.498;13.480;2023-07-09T01:06:30;8.43;;;6.00;;
14681;SDS011;7429;52.498;13.480;2023-07-09T01:09:36;6.30;;;5.45;;
14681;SDS011;7429;52.498;13.480;2023-07-09T01:12:43;5.75;;;4.95;;
14681;SDS011;7429;52.498;13.480;2023-07-09T01:15:50;7.20;;;5.15;;
14681;SDS011;7429;52.498;13.480;2023-07-09T01:18:54;6.90;;;6.20;;
14681;SDS011;7429;52.498;13.480;2023-07-09T01:21:59;7.13;;;5.03;;
14681;SDS011;7429;52.498;13.480;2023-07-09T01:25:05;6.28;;;4.93;;
14681;SDS011;7429;52.498;13.480;2023-07-09T01:28:11;6.10;;;5.50;;
14681;SDS011;7429;52.498;13.480;2023-07-09T01:31:18;9.23;;;8.23;;
14681;SDS011;7429;52.498;13.480;2023-07-09T01:34:25;10.43;;;8.73;;
14681;SDS011;7429;52.498;13.480;2023-07-09T01:37:30;7.55;;;6.85;;
14681;SDS011;7429;52.498;13.480;2023-07-09T01:40:38;7.68;;;6.97;;
14681;SDS011;7429;52.498;13.480;2023-07-09T01:43:45;8.25;;;7.60;;
14681;SDS011;7429;52.498;13.480;2023-07-09T01:46:51;6.88;;;5.03;;
14681;SDS011;7429;52.498;13.480;2023-07-09T01:49:54;6.28;;;4.90;;
14681;SDS011;7429;52.498;13.480;2023-07-09T01:53:00;7.25;;;5.47;;
14681;SDS011;7429;52.498;13.480;2023-07-09T01:56:04;6.70;;;5.45;;
14681;SDS011;7429;52.498;13.480;2023-07-09T01:59:09;7.00;;;5.93;;
14681;SDS011;7429;52.498;13.480;2023-07-09T02:02:12;8.15;;;6.00;;
14681;SDS011;7429;52.498;13.480;2023-07-09T02:05:20;6.38;;;5.78;;
14681;SDS011;7429;52.498;13.480;2023-07-09T02:08:25;7.00;;;6.00;;
14681;SDS011;7429;52.498;13.480;2023-07-09T02:11:34;9.55;;;5.20;;
14681;SDS011;7429;52.498;13.480;2023-07-09T02:14:38;9.52;;;5.60;;
14681;SDS011;7429;52.498;13.480;2023-07-09T02:17:42;8.13;;;6.28;;
14681;SDS011;7429;52.498;13.480;2023-07-09T02:20:46;9.27;;;6.05;;
14681;SDS011;7429;52.498;13.480;2023-07-09T02:23:54;11.18;;;5.65;;
14681;SDS011;7429;52.498;13.480;2023-07-09T02:27:04;7.55;;;6.78;;
14681;SDS011;7429;52.498;13.480;2023-07-09T02:30:11;6.20;;;5.60;;
14681;SDS011;7429;52.498;13.480;2023-07-09T02:33:17;8.73;;;8.02;;
14681;SDS011;7429;52.498;13.480;2023-07-09T02:36:23;9.77;;;6.22;;
14681;SDS011;7429;52.498;13.480;2023-07-09T02:39:29;7.47;;;6.55;;
14681;SDS011;7429;52.498;13.480;2023-07-09T02:42:32;7.22;;;6.55;;
14681;SDS011;7429;52.498;13.480;2023-07-09T02:45:36;6.75;;;6.05;;
14681;SDS011;7429;52.498;13.480;2023-07-09T02:48:39;6.95;;;6.32;;
14681;SDS011;7429;52.498;13.480;2023-07-09T02:51:43;7.28;;;5.50;;
14681;SDS011;7429;52.498;13.480;2023-07-09T02:54:47;9.68;;;8.63;;
14681;SDS011;7429;52.498;13.480;2023-07-09T02:57:51;9.43;;;8.63;;
14681;SDS011;7429;52.498;13.480;2023-07-09T03:00:54;8.43;;;6.82;;
14681;SDS011;7429;52.498;13.480;2023-07-09T03:04:00;6.60;;;6.00;;
14681;SDS011;7429;52.498;13.480;2023-07-09T03:07:05;6.30;;;5.80;;
14681;SDS011;7429;52.498;13.480;2023-07-09T03:10:10;6.70;;;6.07;;
14681;SDS011;7429;52.498;13.480;2023-07-09T03:13:16;10.75;;;7.05;;
14681;SDS011;7429;52.498;13.480;2023-07-09T03:16:19;9.02;;;6.45;;
14681;SDS011;7429;52.498;13.480;2023-07-09T03:19:23;7.93;;;6.15;;
14681;SDS011;7429;52.498;13.480;2023-07-09T03:22:26;6.95;;;6.35;;
14681;SDS011;7429;52.498;13.480;2023-07-09T03:25:31;7.22;;;6.53;;
14681;SDS011;7429;52.498;13.480;2023-07-09T03:28:34;7.10;;;5.70;;
14681;SDS011;7429;52.498;13.480;2023-07-09T03:31:37;7.97;;;6.18;;
14681;SDS011;7429;52.498;13.480;2023-07-09T03:34:41;6.38;;;5.78;;
14681;SDS011;7429;52.498;13.480;2023-07-09T03:37:44;6.80;;;6.10;;
14681;SDS011;7429;52.498;13.480;2023-07-09T03:40:50;9.15;;;8.45;;
14681;SDS011;7429;52.498;13.480;2023-07-09T03:43:54;7.53;;;6.88;;
14681;SDS011;7429;52.498;13.480;2023-07-09T03:46:58;7.90;;;6.57;;
14681;SDS011;7429;52.498;13.480;2023-07-09T03:50:01;7.30;;;6.72;;
14681;SDS011;7429;52.498;13.480;2023-07-09T03:53:04;7.80;;;6.97;;
14681;SDS011;7429;52.498;13.480;2023-07-09T03:56:09;8.43;;;6.40;;
14681;SDS011;7429;52.498;13.480;2023-07-09T03:59:12;9.10;;;8.30;;
14681;SDS011;7429;52.498;13.480;2023-07-09T04:02:17;8.93;;;7.13;;
14681;SDS011;7429;52.498;13.480;2023-07-09T04:05:21;10.07;;;7.13;;
14681;SDS011;7429;52.498;13.480;2023-07-09T04:08:27;8.07;;;7.32;;
14681;SDS011;7429;52.498;13.480;2023-07-09T04:11:31;10.98;;;7.93;;
14681;SDS011;7429;52.498;13.480;2023-07-09T04:14:35;9.00;;;6.97;;
14681;SDS011;7429;52.498;13.480;2023-07-09T04:17:38;9.00;;;7.65;;
14681;SDS011;7429;52.498;13.480;2023-07-09T04:20:47;10.27;;;9.38;;
14681;SDS011;7429;52.498;13.480;2023-07-09T04:23:51;10.02;;;9.10;;
14681;SDS011;7429;52.498;13.480;2023-07-09T04:26:56;10.13;;;9.05;;
14681;SDS011;7429;52.498;13.480;2023-07-09T04:30:04;10.23;;;6.45;;
14681;SDS011;7429;52.498;13.480;2023-07-09T04:33:10;9.02;;;7.47;;
14681;SDS011;7429;52.498;13.480;2023-07-09T04:36:13;9.40;;;8.50;;
14681;SDS011;7429;52.498;13.480;2023-07-09T04:39:17;8.27;;;7.57;;
14681;SDS011;7429;52.498;13.480;2023-07-09T04:42:21;6.95;;;6.35;;
14681;SDS011;7429;52.498;13.480;2023-07-09T04:45:27;8.65;;;7.60;;
14681;SDS011;7429;52.498;13.480;2023-07-09T04:48:30;6.57;;;5.97;;
14681;SDS011;7429;52.498;13.480;2023-07-09T04:51:35;7.22;;;6.20;;
14681;SDS011;7429;52.498;13.480;2023-07-09T04:54:40;6.10;;;5.38;;
14681;SDS011;7429;52.498;13.480;2023-07-09T04:57:46;7.75;;;6.00;;
14681;SDS011;7429;52.498;13.480;2023-07-09T05:00:51;7.38;;;6.50;;
14681;SDS011;7429;52.498;13.480;2023-07-09T05:03:54;5.93;;;5.30;;
14681;SDS011;7429;52.498;13.480;2023-07-09T05:06:58;7.10;;;6.43;;
14681;SDS011;7429;52.498;13.480;2023-07-09T05:10:02;6.15;;;5.65;;
14681;SDS011;7429;52.498;13.480;2023-07-09T05:13:08;7.72;;;6.45;;
14681;SDS011;7429;52.498;13.480;2023-07-09T05:16:15;7.78;;;6.93;;
14681;SDS011;7429;52.498;13.480;2023-07-09T05:19:18;6.07;;;5.32;;
14681;SDS011;7429;52.498;13.480;2023-07-09T05:22:22;6.68;;;4.70;;
14681;SDS011;7429;52.498;13.480;2023-07-09T05:25:25;6.00;;;5.35;;
14681;SDS011;7429;52.498;13.480;2023-07-09T05:28:30;6.60;;;5.10;;
14681;SDS011;7429;52.498;13.480;2023-07-09T05:31:44;6.80;;;5.60;;
14681;SDS011;7429;52.498;13.480;2023-07-09T05:34:47;8.85;;;6.60;;
14681;SDS011;7429;52.498;13.480;2023-07-09T05:37:50;8.48;;;6.38;;
14681;SDS011;7429;52.498;13.480;2023-07-09T05:40:59;8.20;;;5.68;;
14681;SDS011;7429;52.498;13.480;2023-07-09T05:44:05;6.03;;;5.45;;
14681;SDS011;7429;52.498;13.480;2023-07-09T05:47:16;6.55;;;5.03;;
14681;SDS011;7429;52.498;13.480;2023-07-09T05:50:22;5.97;;;5.38;;
14681;SDS011;7429;52.498;13.480;2023-07-09T05:53:30;5.68;;;4.95;;
14681;SDS011;7429;52.498;13.480;2023-07-09T05:56:34;5.80;;;4.93;;
14681;SDS011;7429;52.498;13.480;2023-07-09T05:59:41;6.13;;;4.65;;
14681;SDS011;7429;52.498;13.480;2023-07-09T06:02:44;6.93;;;4.82;;
14681;SDS011;7429;52.498;13.480;2023-07-09T06:05:48;6.45;;;5.20;;
14681;SDS011;7429;52.498;13.480;2023-07-09T06:08:52;5.63;;;4.93;;
14681;SDS011;7429;52.498;13.480;2023-07-09T06:11:56;6.18;;;5.13;;
14681;SDS011;7429;52.498;13.480;2023-07-09T06:15:01;8.45;;;5.10;;
14681;SDS011;7429;52.498;13.480;2023-07-09T06:18:06;5.43;;;4.93;;
14681;SDS011;7429;52.498;13.480;2023-07-09T06:21:09;5.35;;;4.13;;
14681;SDS011;7429;52.498;13.480;2023-07-09T06:24:16;4.32;;;3.90;;
14681;SDS011;7429;52.498;13.480;2023-07-09T06:27:20;7.63;;;5.22;;
14681;SDS011;7429;52.498;13.480;2023-07-09T06:40:55;6.68;;;5.63;;
14681;SDS011;7429;52.498;13.480;2023-07-09T06:44:07;5.07;;;4.70;;
14681;SDS011;7429;52.498;13.480;2023-07-09T06:47:19;6.32;;;4.53;;
14681;SDS011;7429;52.498;13.480;2023-07-09T06:50:28;5.40;;;4.90;;
14681;SDS011;7429;52.498;13.480;2023-07-09T06:53:48;5.63;;;5.07;;
14681;SDS011;7429;52.498;13.480;2023-07-09T06:56:58;7.03;;;6.32;;
14681;SDS011;7429;52.498;13.480;2023-07-09T07:00:02;5.40;;;4.90;;
14681;SDS011;7429;52.498;13.480;2023-07-09T07:03:11;9.10;;;4.97;;
14681;SDS011;7429;52.498;13.480;2023-07-09T07:06:18;5.38;;;4.88;;
14681;SDS011;7429;52.498;13.480;2023-07-09T07:09:24;6.15;;;4.18;;
14681;SDS011;7429;52.498;13.480;2023-07-09T07:12:40;5.55;;;5.05;;
14681;SDS011;7429;52.498;13.480;2023-07-09T07:15:50;7.88;;;5.63;;
14681;SDS011;7429;52.498;13.480;2023-07-09T07:18:55;6.68;;;4.78;;
14681;SDS011;7429;52.498;13.480;2023-07-09T07:21:58;5.30;;;4.72;;
14681;SDS011;7429;52.498;13.480;2023-07-09T07:25:06;5.32;;;4.65;;
14681;SDS011;7429;52.498;13.480;2023-07-09T07:28:18;6.18;;;4.85;;
14681;SDS011;7429;52.498;13.480;2023-07-09T07:31:23;8.98;;;4.88;;
14681;SDS011;7429;52.498;13.480;2023-07-09T07:34:31;6.47;;;5.13;;
14681;SDS011;7429;52.498;13.480;2023-07-09T07:37:34;6.93;;;6.05;;
14681;SDS011;7429;52.498;13.480;2023-07-09T07:40:43;8.73;;;5.57;;
14681;SDS011;7429;52.498;13.480;2023-07-09T07:43:46;4.78;;;4.35;;
14681;SDS011;7429;52.498;13.480;2023-07-09T07:46:50;5.43;;;4.90;;
14681;SDS011;7429;52.498;13.480;2023-07-09T07:49:55;6.47;;;4.40;;
14681;SDS011;7429;52.498;13.480;2023-07-09T07:53:23;4.80;;;4.15;;
14681;SDS011;7429;52.498;13.480;2023-07-09T07:56:27;5.78;;;5.13;;
14681;SDS011;7429;52.498;13.480;2023-07-09T07:59:30;8.60;;;4.90;;
14681;SDS011;7429;52.498;13.480;2023-07-09T08:02:39;5.50;;;4.53;;
14681;SDS011;7429;52.498;13.480;2023-07-09T08:05:52;4.55;;;4.10;;
14681;SDS011;7429;52.498;13.480;2023-07-09T08:09:03;5.60;;;5.10;;
14681;SDS011;7429;52.498;13.480;2023-07-09T08:12:10;6.57;;;4.63;;
14681;SDS011;7429;52.498;13.480;2023-07-09T08:15:19;6.95;;;4.53;;
14681;SDS011;7429;52.498;13.480;2023-07-09T08:18:25;5.93;;;4.43;;
14681;SDS011;7429;52.498;13.480;2023-07-09T08:21:32;4.65;;;4.13;;
14681;SDS011;7429;52.498;13.480;2023-07-09T08:24:35;5.28;;;4.15;;
14681;SDS011;7429;52.498;13.480;2023-07-09T08:27:39;5.20;;;4.70;;
14681;SDS011;7429;52.498;13.480;2023-07-09T08:30:44;6.40;;;4.78;;
14681;SDS011;7429;52.498;13.480;2023-07-09T08:33:47;6.78;;;4.57;;
14681;SDS011;7429;52.498;13.480;2023-07-09T08:36:52;5.40;;;4.45;;
14681;SDS011;7429;52.498;13.480;2023-07-09T08:40:12;6.28;;;4.80;;
14681;SDS011;7429;52.498;13.480;2023-07-09T08:43:32;7.15;;;4.60;;
14681;SDS011;7429;52.498;13.480;2023-07-09T08:46:44;5.07;;;4.10;;
14681;SDS011;7429;52.498;13.480;2023-07-09T08:50:08;7.75;;;5.45;;
14681;SDS011;7429;52.498;13.480;2023-07-09T08:57:19;5.90;;;4.90;;
14681;SDS011;7429;52.498;13.480;2023-07-09T09:00:27;6.32;;;4.63;;
14681;SDS011;7429;52.498;13.480;2023-07-09T09:03:52;6.25;;;4.45;;
14681;SDS011;7429;52.498;13.480;2023-07-09T09:07:44;5.55;;;4.53;;
14681;SDS011;7429;52.498;13.480;2023-07-09T09:16:52;4.55;;;4.10;;
14681;SDS011;7429;52.498;13.480;2023-07-09T09:20:12;8.02;;;4.43;;
14681;SDS011;7429;52.498;13.480;2023-07-09T09:23:36;4.55;;;4.15;;
14681;SDS011;7429;52.498;13.480;2023-07-09T09:26:47;4.60;;;4.20;;
14681;SDS011;7429;52.498;13.480;2023-07-09T09:29:57;4.55;;;4.00;;
14681;SDS011;7429;52.498;13.480;2023-07-09T09:33:11;5.28;;;3.97;;
14681;SDS011;7429;52.498;13.480;2023-07-09T09:36:19;17.33;;;4.47;;
14681;SDS011;7429;52.498;13.480;2023-07-09T09:39:28;5.32;;;4.07;;
14681;SDS011;7429;52.498;13.480;2023-07-09T09:43:21;6.95;;;4.20;;
14681;SDS011;7429;52.498;13.480;2023-07-09T09:46:37;8.43;;;4.63;;
14681;SDS011;7429;52.498;13.480;2023-07-09T09:49:53;5.85;;;5.22;;
14681;SDS011;7429;52.498;13.480;2023-07-09T09:53:06;4.60;;;4.10;;
14681;SDS011;7429;52.498;13.480;2023-07-09T09:56:14;8.80;;;3.83;;
14681;SDS011;7429;52.498;13.480;2023-07-09T09:59:50;5.15;;;3.60;;
14681;SDS011;7429;52.498;13.480;2023-07-09T10:06:30;7.38;;;4.10;;
14681;SDS011;7429;52.498;13.480;2023-07-09T10:09:44;7.13;;;3.75;;
14681;SDS011;7429;52.498;13.480;2023-07-09T10:13:01;6.35;;;3.95;;
14681;SDS011;7429;52.498;13.480;2023-07-09T10:16:25;4.63;;;4.07;;
14681;SDS011;7429;52.498;13.480;2023-07-09T10:19:42;7.13;;;4.28;;
14681;SDS011;7429;52.498;13.480;2023-07-09T10:23:02;7.75;;;4.30;;
14681;SDS011;7429;52.498;13.480;2023-07-09T10:26:22;5.50;;;3.80;;
14681;SDS011;7429;52.498;13.480;2023-07-09T10:29:54;6.88;;;4.18;;
14681;SDS011;7429;52.498;13.480;2023-07-09T10:33:24;5.07;;;4.15;;
14681;SDS011;7429;52.498;13.480;2023-07-09T10:36:52;4.65;;;4.13;;
14681;SDS011;7429;52.498;13.480;2023-07-09T10:40:35;4.00;;;3.60;;
14681;SDS011;7429;52.498;13.480;2023-07-09T10:43:48;4.85;;;4.20;;
14681;SDS011;7429;52.498;13.480;2023-07-09T10:47:03;4.45;;;3.90;;
14681;SDS011;7429;52.498;13.480;2023-07-09T10:56:13;5.93;;;4.32;;
14681;SDS011;7429;52.498;13.480;2023-07-09T10:59:53;4.97;;;3.72;;
14681;SDS011;7429;52.498;13.480;2023-07-09T11:03:02;6.32;;;4.38;;
14681;SDS011;7429;52.498;13.480;2023-07-09T11:06:18;6.95;;;6.13;;
14681;SDS011;7429;52.498;13.480;2023-07-09T11:09:31;9.30;;;6.78;;
14681;SDS011;7429;52.498;13.480;2023-07-09T11:12:39;5.18;;;4.72;;
14681;SDS011;7429;52.498;13.480;2023-07-09T11:15:54;4.70;;;4.30;;
14681;SDS011;7429;52.498;13.480;2023-07-09T11:19:03;5.45;;;4.85;;
14681;SDS011;7429;52.498;13.480;2023-07-09T11:22:21;5.97;;;5.32;;
14681;SDS011;7429;52.498;13.480;2023-07-09T11:25:45;8.70;;;6.53;;
14681;SDS011;7429;52.498;13.480;2023-07-09T11:29:14;7.53;;;4.80;;
14681;SDS011;7429;52.498;13.480;2023-07-09T11:32:44;10.20;;;8.23;;
14681;SDS011;7429;52.498;13.480;2023-07-09T11:35:51;10.75;;;8.40;;
14681;SDS011;7429;52.498;13.480;2023-07-09T11:38:56;10.00;;;7.78;;
14681;SDS011;7429;52.498;13.480;2023-07-09T11:42:24;9.80;;;7.63;;
14681;SDS011;7429;52.498;13.480;2023-07-09T11:46:36;11.93;;;8.35;;
14681;SDS011;7429;52.498;13.480;2023-07-09T11:50:24;10.48;;;7.90;;
14681;SDS011;7429;52.498;13.480;2023-07-09T11:53:33;8.75;;;7.20;;
14681;SDS011;7429;52.498;13.480;2023-07-09T11:56:52;15.27;;;7.05;;
14681;SDS011;7429;52.498;13.480;2023-07-09T12:00:16;7.65;;;6.95;;
14681;SDS011;7429;52.498;13.480;2023-07-09T12:03:22;6.15;;;5.45;;
14681;SDS011;7429;52.498;13.480;2023-07-09T12:06:36;10.27;;;5.40;;
14681;SDS011;7429;52.498;13.480;2023-07-09T12:09:46;8.82;;;7.30;;
14681;SDS011;7429;52.498;13.480;2023-07-09T12:12:56;10.45;;;6.15;;
14681;SDS011;7429;52.498;13.480;2023-07-09T12:16:17;7.30;;;6.30;;
14681;SDS011;7429;52.498;13.480;2023-07-09T12:19:33;6.88;;;6.30;;
14681;SDS011;7429;52.498;13.480;2023-07-09T12:22:44;6.93;;;6.32;;
14681;SDS011;7429;52.498;13.480;2023-07-09T12:25:47;6.32;;;4.93;;
14681;SDS011;7429;52.498;13.480;2023-07-09T12:28:58;5.75;;;5.07;;
14681;SDS011;7429;52.498;13.480;2023-07-09T12:32:03;5.00;;;4.47;;
14681;SDS011;7429;52.498;13.480;2023-07-09T12:35:20;4.68;;;4.22;;
14681;SDS011;7429;52.498;13.480;2023-07-09T12:38:24;4.95;;;4.45;;
14681;SDS011;7429;52.498;13.480;2023-07-09T12:41:33;6.43;;;5.93;;
14681;SDS011;7429;52.498;13.480;2023-07-09T12:44:41;4.97;;;4.47;;
14681;SDS011;7429;52.498;13.480;2023-07-09T12:47:48;8.15;;;4.47;;
14681;SDS011;7429;52.498;13.480;2023-07-09T12:50:54;5.13;;;4.72;;
14681;SDS011;7429;52.498;13.480;2023-07-09T12:54:00;5.40;;;4.47;;
14681;SDS011;7429;52.498;13.480;2023-07-09T12:57:09;6.55;;;5.57;;
14681;SDS011;7429;52.498;13.480;2023-07-09T13:00:22;6.05;;;5.50;;
14681;SDS011;7429;52.498;13.480;2023-07-09T13:03:31;5.63;;;4.85;;
14681;SDS011;7429;52.498;13.480;2023-07-09T13:06:38;8.20;;;3.97;;
14681;SDS011;7429;52.498;13.480;2023-07-09T13:09:47;5.32;;;4.07;;
14681;SDS011;7429;52.498;13.480;2023-07-09T13:12:51;4.72;;;4.07;;
14681;SDS011;7429;52.498;13.480;2023-07-09T13:16:00;6.15;;;4.70;;
14681;SDS011;7429;52.498;13.480;2023-07-09T13:19:06;5.65;;;4.53;;
14681;SDS011;7429;52.498;13.480;2023-07-09T13:22:11;5.68;;;4.55;;
14681;SDS011;7429;52.498;13.480;2023-07-09T13:25:19;7.30;;;4.32;;
14681;SDS011;7429;52.498;13.480;2023-07-09T13:28:42;5.82;;;3.83;;
14681;SDS011;7429;52.498;13.480;2023-07-09T13:31:47;4.95;;;4.30;;
14681;SDS011;7429;52.498;13.480;2023-07-09T13:34:51;4.57;;;4.10;;
14681;SDS011;7429;52.498;13.480;2023-07-09T13:37:57;5.47;;;4.13;;
14681;SDS011;7429;52.498;13.480;2023-07-09T13:41:09;5.25;;;4.45;;
14681;SDS011;7429;52.498;13.480;2023-07-09T13:44:17;4.68;;;4.18;;
14681;SDS011;7429;52.498;13.480;2023-07-09T13:47:24;5.70;;;4.65;;
14681;SDS011;7429;52.498;13.480;2023-07-09T13:50:27;6.55;;;4.32;;
14681;SDS011;7429;52.498;13.480;2023-07-09T13:53:32;6.85;;;6.25;;
14681;SDS011;7429;52.498;13.480;2023-07-09T13:56:35;6.88;;;4.43;;
14681;SDS011;7429;52.498;13.480;2023-07-09T13:59:41;8.15;;;7.55;;
14681;SDS011;7429;52.498;13.480;2023-07-09T14:02:44;5.63;;;4.35;;
14681;SDS011;7429;52.498;13.480;2023-07-09T14:05:48;5.80;;;4.53;;
14681;SDS011;7429;52.498;13.480;2023-07-09T14:08:53;5.32;;;4.57;;
14681;SDS011;7429;52.498;13.480;2023-07-09T14:11:56;6.05;;;5.45;;
14681;SDS011;7429;52.498;13.480;2023-07-09T14:15:00;6.45;;;5.93;;
14681;SDS011;7429;52.498;13.480;2023-07-09T14:18:10;4.13;;;3.65;;
14681;SDS011;7429;52.498;13.480;2023-07-09T14:21:20;5.55;;;5.07;;
14681;SDS011;7429;52.498;13.480;2023-07-09T14:24:29;6.32;;;4.88;;
14681;SDS011;7429;52.498;13.480;2023-07-09T14:27:39;7.07;;;4.30;;
14681;SDS011;7429;52.498;13.480;2023-07-09T14:30:42;7.03;;;6.30;;
14681;SDS011;7429;52.498;13.480;2023-07-09T14:33:47;5.00;;;4.47;;
14681;SDS011;7429;52.498;13.480;2023-07-09T14:36:50;5.88;;;5.38;;
14681;SDS011;7429;52.498;13.480;2023-07-09T14:39:57;7.05;;;4.70;;
14681;SDS011;7429;52.498;13.480;2023-07-09T14:43:01;4.43;;;4.03;;
14681;SDS011;7429;52.498;13.480;2023-07-09T14:46:08;6.30;;;5.07;;
14681;SDS011;7429;52.498;13.480;2023-07-09T14:49:11;5.60;;;5.10;;
14681;SDS011;7429;52.498;13.480;2023-07-09T14:52:15;8.90;;;5.22;;
14681;SDS011;7429;52.498;13.480;2023-07-09T14:55:24;4.78;;;4.32;;
14681;SDS011;7429;52.498;13.480;2023-07-09T14:58:32;5.05;;;4.60;;
14681;SDS011;7429;52.498;13.480;2023-07-09T15:01:39;6.47;;;4.50;;
14681;SDS011;7429;52.498;13.480;2023-07-09T15:04:46;4.63;;;4.22;;
14681;SDS011;7429;52.498;13.480;2023-07-09T15:07:49;5.68;;;4.45;;
14681;SDS011;7429;52.498;13.480;2023-07-09T15:10:54;5.03;;;4.53;;
14681;SDS011;7429;52.498;13.480;2023-07-09T15:13:58;4.90;;;4.50;;
14681;SDS011;7429;52.498;13.480;2023-07-09T15:17:03;6.43;;;5.78;;
14681;SDS011;7429;52.498;13.480;2023-07-09T15:20:08;6.47;;;4.60;;
14681;SDS011;7429;52.498;13.480;2023-07-09T15:23:16;6.28;;;4.93;;
14681;SDS011;7429;52.498;13.480;2023-07-09T15:26:25;5.20;;;4.70;;
14681;SDS011;7429;52.498;13.480;2023-07-09T15:29:28;6.82;;;6.32;;
14681;SDS011;7429;52.498;13.480;2023-07-09T15:32:36;6.40;;;4.68;;
14681;SDS011;7429;52.498;13.480;2023-07-09T15:35:41;5.20;;;4.45;;
14681;SDS011;7429;52.498;13.480;2023-07-09T15:38:46;5.93;;;4.85;;
14681;SDS011;7429;52.498;13.480;2023-07-09T15:41:51;7.13;;;5.00;;
14681;SDS011;7429;52.498;13.480;2023-07-09T15:44:54;5.55;;;4.40;;
14681;SDS011;7429;52.498;13.480;2023-07-09T15:47:57;5.97;;;4.80;;
14681;SDS011;7429;52.498;13.480;2023-07-09T15:51:01;4.63;;;3.85;;
14681;SDS011;7429;52.498;13.480;2023-07-09T15:54:14;5.07;;;4.57;;
14681;SDS011;7429;52.498;13.480;2023-07-09T15:57:20;6.47;;;4.80;;
14681;SDS011;7429;52.498;13.480;2023-07-09T16:00:41;5.20;;;4.68;;
14681;SDS011;7429;52.498;13.480;2023-07-09T16:03:47;4.68;;;4.05;;
14681;SDS011;7429;52.498;13.480;2023-07-09T16:06:53;6.97;;;4.45;;
14681;SDS011;7429;52.498;13.480;2023-07-09T16:09:57;6.75;;;4.55;;
14681;SDS011;7429;52.498;13.480;2023-07-09T16:17:59;5.85;;;4.18;;
14681;SDS011;7429;52.498;13.480;2023-07-09T16:21:04;5.25;;;3.90;;
14681;SDS011;7429;52.498;13.480;2023-07-09T16:24:10;5.90;;;4.53;;
14681;SDS011;7429;52.498;13.480;2023-07-09T16:27:23;6.20;;;4.18;;
14681;SDS011;7429;52.498;13.480;2023-07-09T16:30:28;5.00;;;4.50;;
14681;SDS011;7429;52.498;13.480;2023-07-09T16:33:36;7.35;;;5.28;;
14681;SDS011;7429;52.498;13.480;2023-07-09T16:36:39;11.77;;;8.25;;
14681;SDS011;7429;52.498;13.480;2023-07-09T16:39:45;6.35;;;5.18;;
14681;SDS011;7429;52.498;13.480;2023-07-09T16:42:53;5.53;;;4.63;;
14681;SDS011;7429;52.498;13.480;2023-07-09T16:51:34;5.65;;;5.00;;
14681;SDS011;7429;52.498;13.480;2023-07-09T16:54:45;5.75;;;4.90;;
14681;SDS011;7429;52.498;13.480;2023-07-09T16:57:56;5.97;;;5.32;;
14681;SDS011;7429;52.498;13.480;2023-07-09T17:07:25;4.85;;;4.38;;
14681;SDS011;7429;52.498;13.480;2023-07-09T17:12:41;7.85;;;5.03;;
14681;SDS011;7429;52.498;13.480;2023-07-09T17:15:46;8.40;;;5.32;;
14681;SDS011;7429;52.498;13.480;2023-07-09T17:18:52;12.45;;;10.05;;
14681;SDS011;7429;52.498;13.480;2023-07-09T17:21:55;5.88;;;5.22;;
14681;SDS011;7429;52.498;13.480;2023-07-09T17:25:24;9.18;;;5.13;;
14681;SDS011;7429;52.498;13.480;2023-07-09T17:28:40;6.32;;;5.72;;
14681;SDS011;7429;52.498;13.480;2023-07-09T17:51:46;7.43;;;5.63;;
14681;SDS011;7429;52.498;13.480;2023-07-09T17:54:58;8.05;;;5.40;;
14681;SDS011;7429;52.498;13.480;2023-07-09T18:03:07;6.20;;;5.20;;
14681;SDS011;7429;52.498;13.480;2023-07-09T18:06:23;7.85;;;5.50;;
14681;SDS011;7429;52.498;13.480;2023-07-09T18:10:32;5.97;;;5.22;;
14681;SDS011;7429;52.498;13.480;2023-07-09T18:15:25;6.65;;;5.32;;
14681;SDS011;7429;52.498;13.480;2023-07-09T18:34:57;6.13;;;5.00;;
14681;SDS011;7429;52.498;13.480;2023-07-09T18:39:09;7.78;;;5.38;;
14681;SDS011;7429;52.498;13.480;2023-07-09T18:43:22;6.75;;;5.10;;
14681;SDS011;7429;52.498;13.480;2023-07-09T19:07:24;8.48;;;5.80;;
14681;SDS011;7429;52.498;13.480;2023-07-09T19:14:38;10.35;;;8.00;;
14681;SDS011;7429;52.498;13.480;2023-07-09T19:17:52;11.10;;;6.38;;
14681;SDS011;7429;52.498;13.480;2023-07-09T19:20:59;9.20;;;6.60;;
14681;SDS011;7429;52.498;13.480;2023-07-09T19:24:13;8.65;;;5.80;;
14681;SDS011;7429;52.498;13.480;2023-07-09T19:38:45;11.80;;;7.10;;
14681;SDS011;7429;52.498;13.480;2023-07-09T19:42:17;12.65;;;6.13;;
14681;SDS011;7429;52.498;13.480;2023-07-09T19:53:17;6.72;;;5.88;;
14681;SDS011;7429;52.498;13.480;2023-07-09T19:56:45;8.32;;;5.22;;
14681;SDS011;7429;52.498;13.480;2023-07-09T19:59:54;8.75;;;6.18;;
14681;SDS011;7429;52.498;13.480;2023-07-09T20:03:33;11.52;;;6.65;;
14681;SDS011;7429;52.498;13.480;2023-07-09T20:17:03;6.82;;;6.10;;
14681;SDS011;7429;52.498;13.480;2023-07-09T20:20:55;7.07;;;5.15;;
14681;SDS011;7429;52.498;13.480;2023-07-09T20:28:45;10.15;;;5.82;;
14681;SDS011;7429;52.498;13.480;2023-07-09T20:31:57;8.93;;;5.35;;
14681;SDS011;7429;52.498;13.480;2023-07-09T20:35:15;7.70;;;5.45;;
14681;SDS011;7429;52.498;13.480;2023-07-09T20:38:26;6.20;;;5.45;;
14681;SDS011;7429;52.498;13.480;2023-07-09T20:41:33;7.95;;;5.38;;
14681;SDS011;7429;52.498;13.480;2023-07-09T20:44:46;10.65;;;6.18;;
14681;SDS011;7429;52.498;13.480;2023-07-09T20:48:15;7.35;;;5.88;;
14681;SDS011;7429;52.498;13.480;2023-07-09T20:51:26;10.70;;;6.03;;
14681;SDS011;7429;52.498;13.480;2023-07-09T20:54:35;10.77;;;6.22;;
14681;SDS011;7429;52.498;13.480;2023-07-09T20:57:51;7.68;;;5.63;;
14681;SDS011;7429;52.498;13.480;2023-07-09T21:01:12;7.63;;;5.20;;
14681;SDS011;7429;52.498;13.480;2023-07-09T21:04:51;8.95;;;5.45;;
14681;SDS011;7429;52.498;13.480;2023-07-09T21:07:56;9.10;;;6.68;;
14681;SDS011;7429;52.498;13.480;2023-07-09T21:11:12;10.45;;;6.70;;
14681;SDS011;7429;52.498;13.480;2023-07-09T21:14:26;13.63;;;6.78;;
14681;SDS011;7429;52.498;13.480;2023-07-09T21:17:31;9.13;;;6.32;;
14681;SDS011;7429;52.498;13.480;2023-07-09T21:20:38;8.68;;;6.38;;
14681;SDS011;7429;52.498;13.480;2023-07-09T21:23:48;7.88;;;6.45;;
14681;SDS011;7429;52.498;13.480;2023-07-09T21:26:52;8.45;;;6.53;;
14681;SDS011;7429;52.498;13.480;2023-07-09T21:30:19;6.13;;;5.25;;
14681;SDS011;7429;52.498;13.480;2023-07-09T21:33:48;9.15;;;6.40;;
14681;SDS011;7429;52.498;13.480;2023-07-09T21:37:10;9.13;;;5.32;;
14681;SDS011;7429;52.498;13.480;2023-07-09T21:40:23;11.70;;;5.30;;